EVENT B737 800 .pdf


Nom original: EVENT_B737-800.pdfTitre: Microsoft Word - EVENTAuteur: 02

Ce document au format PDF 1.4 a été généré par PScript5.dll Version 5.2.2 / Acrobat Distiller 8.0.0 (Windows), et a été envoyé sur fichier-pdf.fr le 21/02/2014 à 15:29, depuis l'adresse IP 86.220.x.x. La présente page de téléchargement du fichier a été vue 421 fois.
Taille du document: 137 Ko (2 pages).
Confidentialité: fichier public


Aperçu du document


 
AIRCRAFT: B737‐800 NG 
=====================================================================
L O A D S H E E T
CHECKED
APPROVED
EDNO
0
ALL WEIGHTS IN POUNDS
DATABASE JUN/12 // BOEING 737-800 (IFLY/PMDG)
FROM/TO
LDSP/BIRK

FLIGHT
3739

A/C-REG
__VJQ

LOAD IN COMPARTMENTS
PASSENGER/CABIN BAG

WEIGHT
003408
023595

TOTAL TRAFFIC LOAD
DRY OPERATING WEIGHT
ZERO FUEL WEIGHT ACTUAL
TAKE OFF FUEL
TAKE OFF WEIGHT ACTUAL
TRIP FUEL
LANDING WEIGHT ACTUAL

027003
090560
117563
031235
148799
024720
124078

VERSION
12JN21

CREW
2/03

DISTRIBUTION
B113/30
Y121/195
EFU.24720/

DATE
21FEB14

TIME
0736

RSV.6515

MAX 136000
MAX 174200

MAX 144004
++--------------------------------+
|
LAST MINUTE CHANGES |
| DEST
SPEC CL/CPT + - WEIGHT |
|
|
|
|
|
|
+---------------------------------+
UNDERLOAD BEFORE LMC
25400
LMC TOTAL + --------------------------------------------------------------------SI BLOCK TIME 04:44
RESERVE 01:15
TIME TO EMPTY 05:59
CI 29
SI LDSP 210730Z 10006KT 050V150 9999 -RA SCT015 BKN035 12/11 Q1012
SI BIRK 210700Z 02008KT CAVOK 02/M06 Q0985
END LOADSHEET
[ B738_PMDG ]
[ LDSP-BIRK ]
[ 20FEB14 ]

ROUT
TE:
LDSP SI
ID ZDA UN60
06 BADOP UP
P66 KPT UL6
608 TEDGO UZ210
U
LIRSU
U UL608 TER
RLA UN852 SPY
S
UL7
SUM UM
M125 GONUT G11 MY G3 METIL DCT BIRK

CRUI
ISE FL:
:360-38
80
APPR
ROACH INFORMA
I
MATIONS
S:
Numberr

T
Type

Id

Frrequency

Heading

Anglle

Range
R

13

n/a

I

109.1

n/a

n/a

n/a

14

ILS

IRE

109.1

136

n/a

16 nm
m / 26 km

19

n/a

I

109.9

n/a

n/a

n/a

20

ILS

IRK

109.9

195

n/a

16 nm
m / 26 km

GET:
DON'T FORG
y
mak
ke „kis
ss lan
nding“ , exp
pect
If you
meda
al.

D LUCK!
!
GOOD


Aperçu du document EVENT_B737-800.pdf - page 1/2

Aperçu du document EVENT_B737-800.pdf - page 2/2




Télécharger le fichier (PDF)


EVENT_B737-800.pdf (PDF, 137 Ko)

Télécharger
Formats alternatifs: ZIP



Documents similaires


event b737 800
event b747pmdg
event a320
b777
111017 aircraft commerce article
pfpx flight plan template

Sur le même sujet..